sensor_id;sensor_type;location;lat;lon;timestamp;temperature;humidity
31725;DHT22;18306;40.960;14.836;2024-03-23T00:53:41;6.70;85.90
31725;DHT22;18306;40.960;14.836;2024-03-23T00:56:08;6.70;86.80
31725;DHT22;18306;40.960;14.836;2024-03-23T00:58:35;6.70;85.80
31725;DHT22;18306;40.960;14.836;2024-03-23T01:01:02;6.70;86.60
31725;DHT22;18306;40.960;14.836;2024-03-23T01:03:30;6.60;87.40
31725;DHT22;18306;40.960;14.836;2024-03-23T01:06:01;6.60;88.30
31725;DHT22;18306;40.960;14.836;2024-03-23T01:08:28;6.60;88.30
31725;DHT22;18306;40.960;14.836;2024-03-23T01:10:59;6.70;87.80
31725;DHT22;18306;40.960;14.836;2024-03-23T01:13:27;6.70;86.50
31725;DHT22;18306;40.960;14.836;2024-03-23T01:15:55;6.60;87.00
31725;DHT22;18306;40.960;14.836;2024-03-23T01:18:23;6.70;86.90
31725;DHT22;18306;40.960;14.836;2024-03-23T01:20:50;6.60;86.70
31725;DHT22;18306;40.960;14.836;2024-03-23T01:23:16;6.70;86.30
31725;DHT22;18306;40.960;14.836;2024-03-23T01:25:43;6.50;88.00
31725;DHT22;18306;40.960;14.836;2024-03-23T01:28:18;6.50;87.70
31725;DHT22;18306;40.960;14.836;2024-03-23T01:30:44;6.50;87.60
31725;DHT22;18306;40.960;14.836;2024-03-23T01:33:11;6.50;88.10
31725;DHT22;18306;40.960;14.836;2024-03-23T01:35:39;6.50;88.00
31725;DHT22;18306;40.960;14.836;2024-03-23T01:38:06;6.50;87.80
31725;DHT22;18306;40.960;14.836;2024-03-23T01:40:34;6.40;86.10
31725;DHT22;18306;40.960;14.836;2024-03-23T01:43:05;6.40;85.40
31725;DHT22;18306;40.960;14.836;2024-03-23T01:45:34;6.20;86.90
31725;DHT22;18306;40.960;14.836;2024-03-23T01:48:02;6.30;87.20
31725;DHT22;18306;40.960;14.836;2024-03-23T01:50:30;6.20;87.80
31725;DHT22;18306;40.960;14.836;2024-03-23T01:53:03;6.30;87.20
31725;DHT22;18306;40.960;14.836;2024-03-23T01:55:34;6.20;86.20
31725;DHT22;18306;40.960;14.836;2024-03-23T01:58:05;6.20;87.00
31725;DHT22;18306;40.960;14.836;2024-03-23T02:00:33;6.10;86.60
31725;DHT22;18306;40.960;14.836;2024-03-23T02:03:00;6.20;87.50
31725;DHT22;18306;40.960;14.836;2024-03-23T02:05:27;6.10;87.30
31725;DHT22;18306;40.960;14.836;2024-03-23T02:07:54;6.10;88.30
31725;DHT22;18306;40.960;14.836;2024-03-23T02:10:21;6.00;89.30
31725;DHT22;18306;40.960;14.836;2024-03-23T02:12:48;5.90;90.10
31725;DHT22;18306;40.960;14.836;2024-03-23T02:15:15;5.80;90.70
31725;DHT22;18306;40.960;14.836;2024-03-23T02:17:42;5.90;90.60
31725;DHT22;18306;40.960;14.836;2024-03-23T02:20:11;5.90;90.10
31725;DHT22;18306;40.960;14.836;2024-03-23T02:22:39;6.10;89.60
31725;DHT22;18306;40.960;14.836;2024-03-23T02:25:06;6.10;88.00
31725;DHT22;18306;40.960;14.836;2024-03-23T02:27:34;6.20;88.20
31725;DHT22;18306;40.960;14.836;2024-03-23T02:30:06;6.20;88.10
31725;DHT22;18306;40.960;14.836;2024-03-23T02:32:33;6.30;87.80
31725;DHT22;18306;40.960;14.836;2024-03-23T02:35:00;6.20;87.40
31725;DHT22;18306;40.960;14.836;2024-03-23T02:37:27;6.20;87.40
31725;DHT22;18306;40.960;14.836;2024-03-23T02:39:54;6.10;88.70
31725;DHT22;18306;40.960;14.836;2024-03-23T02:42:20;5.90;89.90
31725;DHT22;18306;40.960;14.836;2024-03-23T02:44:47;5.90;90.20
31725;DHT22;18306;40.960;14.836;2024-03-23T02:47:14;5.90;89.70
31725;DHT22;18306;40.960;14.836;2024-03-23T02:49:41;6.00;88.50
31725;DHT22;18306;40.960;14.836;2024-03-23T02:52:08;5.90;88.40
31725;DHT22;18306;40.960;14.836;2024-03-23T02:54:35;5.90;88.40
31725;DHT22;18306;40.960;14.836;2024-03-23T02:57:02;5.90;88.40
31725;DHT22;18306;40.960;14.836;2024-03-23T02:59:29;5.90;88.00
31725;DHT22;18306;40.960;14.836;2024-03-23T03:01:56;5.90;87.70
31725;DHT22;18306;40.960;14.836;2024-03-23T03:04:23;6.00;87.90
31725;DHT22;18306;40.960;14.836;2024-03-23T03:06:50;6.00;87.20
31725;DHT22;18306;40.960;14.836;2024-03-23T03:09:17;6.00;87.20
31725;DHT22;18306;40.960;14.836;2024-03-23T03:11:44;6.00;85.70
31725;DHT22;18306;40.960;14.836;2024-03-23T03:14:11;5.90;85.40
31725;DHT22;18306;40.960;14.836;2024-03-23T03:16:38;5.80;86.60
31725;DHT22;18306;40.960;14.836;2024-03-23T03:19:04;5.80;87.30
31725;DHT22;18306;40.960;14.836;2024-03-23T03:21:32;5.80;87.00
31725;DHT22;18306;40.960;14.836;2024-03-23T03:23:59;5.90;85.40
31725;DHT22;18306;40.960;14.836;2024-03-23T03:26:26;5.90;85.20
31725;DHT22;18306;40.960;14.836;2024-03-23T03:28:53;5.90;84.10
31725;DHT22;18306;40.960;14.836;2024-03-23T03:31:20;5.60;84.40
31725;DHT22;18306;40.960;14.836;2024-03-23T03:33:50;5.50;85.80
31725;DHT22;18306;40.960;14.836;2024-03-23T03:36:17;5.50;86.30
31725;DHT22;18306;40.960;14.836;2024-03-23T03:38:44;5.50;86.60
31725;DHT22;18306;40.960;14.836;2024-03-23T03:41:11;5.40;86.90
31725;DHT22;18306;40.960;14.836;2024-03-23T03:43:38;5.00;89.10
31725;DHT22;18306;40.960;14.836;2024-03-23T03:46:05;4.90;89.80
31725;DHT22;18306;40.960;14.836;2024-03-23T03:48:34;5.10;89.00
31725;DHT22;18306;40.960;14.836;2024-03-23T03:51:01;5.20;88.00
31725;DHT22;18306;40.960;14.836;2024-03-23T03:53:28;5.20;87.30
31725;DHT22;18306;40.960;14.836;2024-03-23T03:55:56;5.20;87.60
31725;DHT22;18306;40.960;14.836;2024-03-23T03:58:22;5.30;86.30
31725;DHT22;18306;40.960;14.836;2024-03-23T04:00:49;5.30;85.70
31725;DHT22;18306;40.960;14.836;2024-03-23T04:03:17;5.10;87.80
31725;DHT22;18306;40.960;14.836;2024-03-23T04:05:53;5.10;88.60
31725;DHT22;18306;40.960;14.836;2024-03-23T04:08:20;5.20;87.50
31725;DHT22;18306;40.960;14.836;2024-03-23T04:10:47;5.20;88.00
31725;DHT22;18306;40.960;14.836;2024-03-23T04:13:14;5.30;87.90
31725;DHT22;18306;40.960;14.836;2024-03-23T04:15:41;5.30;87.90
31725;DHT22;18306;40.960;14.836;2024-03-23T04:18:09;5.30;88.20
31725;DHT22;18306;40.960;14.836;2024-03-23T04:20:35;5.30;88.10
31725;DHT22;18306;40.960;14.836;2024-03-23T04:23:02;4.90;89.10
31725;DHT22;18306;40.960;14.836;2024-03-23T04:25:29;5.00;88.70
31725;DHT22;18306;40.960;14.836;2024-03-23T04:27:56;5.00;88.40
31725;DHT22;18306;40.960;14.836;2024-03-23T04:30:23;5.10;88.20
31725;DHT22;18306;40.960;14.836;2024-03-23T04:32:51;4.90;89.80
31725;DHT22;18306;40.960;14.836;2024-03-23T04:35:18;5.00;89.70
31725;DHT22;18306;40.960;14.836;2024-03-23T04:37:46;5.00;87.00
31725;DHT22;18306;40.960;14.836;2024-03-23T04:40:13;5.00;87.70
31725;DHT22;18306;40.960;14.836;2024-03-23T04:42:40;5.10;87.80
31725;DHT22;18306;40.960;14.836;2024-03-23T04:45:07;5.20;87.60
31725;DHT22;18306;40.960;14.836;2024-03-23T04:47:35;5.10;88.10
31725;DHT22;18306;40.960;14.836;2024-03-23T04:50:04;5.20;87.60
31725;DHT22;18306;40.960;14.836;2024-03-23T04:52:31;5.30;87.20
31725;DHT22;18306;40.960;14.836;2024-03-23T04:54:59;5.20;87.50
31725;DHT22;18306;40.960;14.836;2024-03-23T04:57:26;5.20;87.40
31725;DHT22;18306;40.960;14.836;2024-03-23T04:59:52;5.20;86.60
31725;DHT22;18306;40.960;14.836;2024-03-23T05:02:19;5.20;86.90
31725;DHT22;18306;40.960;14.836;2024-03-23T05:04:46;5.10;86.40
31725;DHT22;18306;40.960;14.836;2024-03-23T05:07:13;4.90;85.60
31725;DHT22;18306;40.960;14.836;2024-03-23T05:09:40;4.90;86.80
31725;DHT22;18306;40.960;14.836;2024-03-23T05:12:07;4.80;88.00
31725;DHT22;18306;40.960;14.836;2024-03-23T05:14:37;4.80;87.90
31725;DHT22;18306;40.960;14.836;2024-03-23T05:17:12;4.90;88.80
31725;DHT22;18306;40.960;14.836;2024-03-23T05:19:52;5.00;88.50
31725;DHT22;18306;40.960;14.836;2024-03-23T05:22:31;5.10;88.20
31725;DHT22;18306;40.960;14.836;2024-03-23T05:25:02;5.20;88.00
31725;DHT22;18306;40.960;14.836;2024-03-23T05:27:34;5.20;87.80
31725;DHT22;18306;40.960;14.836;2024-03-23T05:30:01;5.20;87.30
31725;DHT22;18306;40.960;14.836;2024-03-23T05:32:28;5.20;87.20
31725;DHT22;18306;40.960;14.836;2024-03-23T05:34:55;5.20;87.50
31725;DHT22;18306;40.960;14.836;2024-03-23T05:37:23;5.10;87.60
31725;DHT22;18306;40.960;14.836;2024-03-23T05:39:50;5.00;88.70
31725;DHT22;18306;40.960;14.836;2024-03-23T05:42:18;4.80;89.90
31725;DHT22;18306;40.960;14.836;2024-03-23T05:44:45;5.00;89.80
31725;DHT22;18306;40.960;14.836;2024-03-23T05:47:13;5.10;88.40
31725;DHT22;18306;40.960;14.836;2024-03-23T05:49:43;5.10;87.80
31725;DHT22;18306;40.960;14.836;2024-03-23T05:52:10;5.20;87.80
31725;DHT22;18306;40.960;14.836;2024-03-23T05:54:37;5.10;88.10
31725;DHT22;18306;40.960;14.836;2024-03-23T05:57:04;5.00;88.90
31725;DHT22;18306;40.960;14.836;2024-03-23T05:59:34;5.20;89.10
31725;DHT22;18306;40.960;14.836;2024-03-23T06:02:01;5.20;88.90
31725;DHT22;18306;40.960;14.836;2024-03-23T06:04:28;5.20;89.40
31725;DHT22;18306;40.960;14.836;2024-03-23T06:06:55;5.30;89.20
31725;DHT22;18306;40.960;14.836;2024-03-23T06:09:22;5.50;89.00
31725;DHT22;18306;40.960;14.836;2024-03-23T06:11:49;5.50;88.70
31725;DHT22;18306;40.960;14.836;2024-03-23T06:14:16;5.50;89.20
31725;DHT22;18306;40.960;14.836;2024-03-23T06:16:42;5.60;89.40
31725;DHT22;18306;40.960;14.836;2024-03-23T06:19:10;5.80;88.60
31725;DHT22;18306;40.960;14.836;2024-03-23T06:21:37;6.00;88.50
31725;DHT22;18306;40.960;14.836;2024-03-23T06:24:04;6.30;88.20
31725;DHT22;18306;40.960;14.836;2024-03-23T06:26:31;6.60;87.40
31725;DHT22;18306;40.960;14.836;2024-03-23T06:28:58;6.80;86.70
31725;DHT22;18306;40.960;14.836;2024-03-23T06:31:25;6.80;86.60
31725;DHT22;18306;40.960;14.836;2024-03-23T06:33:52;7.00;86.80
31725;DHT22;18306;40.960;14.836;2024-03-23T06:36:19;7.20;86.50
31725;DHT22;18306;40.960;14.836;2024-03-23T06:38:46;7.40;85.90
31725;DHT22;18306;40.960;14.836;2024-03-23T06:41:13;7.70;85.00
31725;DHT22;18306;40.960;14.836;2024-03-23T06:43:40;7.90;83.70
31725;DHT22;18306;40.960;14.836;2024-03-23T06:46:07;8.20;82.70
31725;DHT22;18306;40.960;14.836;2024-03-23T06:48:34;8.20;82.60
31725;DHT22;18306;40.960;14.836;2024-03-23T06:51:01;8.20;82.80
31725;DHT22;18306;40.960;14.836;2024-03-23T06:53:44;8.20;83.50
31725;DHT22;18306;40.960;14.836;2024-03-23T06:56:29;8.30;84.00
31725;DHT22;18306;40.960;14.836;2024-03-23T06:58:57;8.70;81.80
31725;DHT22;18306;40.960;14.836;2024-03-23T07:01:24;9.00;80.90
31725;DHT22;18306;40.960;14.836;2024-03-23T07:03:51;9.20;81.20
31725;DHT22;18306;40.960;14.836;2024-03-23T07:06:18;9.30;80.70
31725;DHT22;18306;40.960;14.836;2024-03-23T07:08:45;9.30;80.70
31725;DHT22;18306;40.960;14.836;2024-03-23T07:11:22;9.40;81.30
31725;DHT22;18306;40.960;14.836;2024-03-23T07:13:53;9.60;79.60
31725;DHT22;18306;40.960;14.836;2024-03-23T07:16:23;9.70;80.30
31725;DHT22;18306;40.960;14.836;2024-03-23T07:18:51;9.90;79.60
31725;DHT22;18306;40.960;14.836;2024-03-23T07:21:18;10.00;79.10
31725;DHT22;18306;40.960;14.836;2024-03-23T07:23:46;10.30;78.70
31725;DHT22;18306;40.960;14.836;2024-03-23T07:26:15;10.40;79.40
